createdAt,value
2019-04-21T00:01:07.149Z,102915.58
2019-04-21T00:03:40.763Z,102919.66
2019-04-21T00:06:22.522Z,102920.54
2019-04-21T00:08:57.872Z,102915.75
2019-04-21T00:11:28.148Z,102916.92
2019-04-21T00:13:52.709Z,102916.94
2019-04-21T00:16:12.702Z,102915.47
2019-04-21T00:19:07.128Z,102915.88
2019-04-21T00:21:38.560Z,102911.68
2019-04-21T00:24:25.095Z,102913.87
2019-04-21T00:27:06.885Z,102910.39
2019-04-21T00:29:38.588Z,102911.92
2019-04-21T00:32:04.366Z,102907.92
2019-04-21T00:34:19.583Z,102906.62
2019-04-21T00:37:00.147Z,102904.61
2019-04-21T00:39:52.464Z,102902.14
2019-04-21T00:42:11.168Z,102902.59
2019-04-21T00:44:35.525Z,102900.34
2019-04-21T00:47:13.944Z,102896.64
2019-04-21T00:49:52.157Z,102899.47
2019-04-21T00:57:57.476Z,102886.99
2019-04-21T01:00:22.253Z,102882.36
2019-04-21T01:02:56.120Z,102887.83
2019-04-21T01:05:33.784Z,102889.81
2019-04-21T01:07:55.904Z,102888.09
2019-04-21T01:10:20.812Z,102884.48
2019-04-21T01:13:02.966Z,102883.59
2019-04-21T01:15:39.886Z,102883.91
2019-04-21T01:17:58.540Z,102877.72
2019-04-21T01:20:17.416Z,102882.36
2019-04-21T01:22:42.317Z,102878.95
2019-04-21T01:25:20.234Z,102887.11
2019-04-21T01:27:59.351Z,102887.75
2019-04-21T01:30:34.622Z,102881.28
2019-04-21T01:33:09.481Z,102870.95
2019-04-21T01:35:39.755Z,102869.45
2019-04-21T01:38:13.942Z,102868.61
2019-04-21T01:40:43.194Z,102872.21
2019-04-21T01:43:07.440Z,102866.86
2019-04-21T01:45:41.655Z,102863.56
2019-04-21T01:48:10.338Z,102872.93
2019-04-21T01:50:43.876Z,102877.33
2019-04-21T01:53:30.669Z,102878.88
2019-04-21T01:56:17.231Z,102869.97
2019-04-21T01:58:44.301Z,102870.41
2019-04-21T02:01:24.632Z,102865.25
2019-04-21T02:04:11.738Z,102866.62
2019-04-21T02:06:27.110Z,102866.54
2019-04-21T02:08:55.159Z,102859.33
2019-04-21T02:11:31.278Z,102860.48
2019-04-21T02:14:05.999Z,102851.66
2019-04-21T02:16:28.217Z,102853.03
2019-04-21T02:18:58.549Z,102856.87
2019-04-21T02:21:29.429Z,102856.81
2019-04-21T02:26:37.770Z,102855.11
2019-04-21T02:29:07.096Z,102853.14
2019-04-21T02:31:57.521Z,102855.76
2019-04-21T02:34:17.305Z,102852.30
2019-04-21T02:37:11.067Z,102857.67
2019-04-21T02:39:23.152Z,102856.52
2019-04-21T02:42:05.476Z,102852.16
2019-04-21T02:46:46.396Z,102845.20
2019-04-21T02:49:35.485Z,102844.38
2019-04-21T02:52:09.196Z,102845.75
2019-04-21T02:57:02.035Z,102832.34
2019-04-21T02:59:49.661Z,102832.78
2019-04-21T03:02:40.710Z,102836.34
2019-04-21T03:07:52.102Z,102832.38
2019-04-21T03:10:18.390Z,102831.91
2019-04-21T03:17:48.796Z,102819.00
2019-04-21T03:20:26.783Z,102818.69
2019-04-21T03:22:58.200Z,102814.33
2019-04-21T03:27:56.917Z,102812.61
2019-04-21T03:30:44.931Z,102807.62
2019-04-21T03:35:58.221Z,102796.20
2019-04-21T03:38:03.874Z,102799.66
2019-04-21T03:40:26.088Z,102802.53
2019-04-21T03:43:01.851Z,102802.18
2019-04-21T03:45:40.518Z,102798.76
2019-04-21T03:48:01.055Z,102792.47
2019-04-21T03:53:03.492Z,102799.45
2019-04-21T04:01:04.159Z,102800.06
2019-04-21T04:06:51.205Z,102804.17
2019-04-21T04:14:12.850Z,102802.56
2019-04-21T04:18:57.677Z,102803.61
2019-04-21T04:24:07.184Z,102795.39
2019-04-21T04:26:43.356Z,102789.86
2019-04-21T04:29:10.939Z,102787.84
2019-04-21T04:34:16.739Z,102790.88
2019-04-21T04:39:42.742Z,102786.58
2019-04-21T04:42:29.957Z,102788.65
2019-04-21T04:49:54.973Z,102775.09
2019-04-21T04:57:34.267Z,102776.91
2019-04-21T05:02:33.768Z,102775.99
2019-04-21T05:05:13.812Z,102764.05
2019-04-21T05:10:03.978Z,102751.58
2019-04-21T05:12:36.483Z,102752.23
2019-04-21T05:15:07.920Z,102747.69
2019-04-21T05:20:17.126Z,102743.84
2019-04-21T05:22:41.199Z,102746.82
2019-04-21T05:24:59.438Z,102746.82
2019-04-21T05:27:45.147Z,102747.92
2019-04-21T05:30:55.335Z,102728.44
2019-04-21T05:33:45.998Z,102735.59
2019-04-21T05:36:38.253Z,102734.77
2019-04-21T05:39:14.837Z,102724.47
2019-04-21T05:41:39.778Z,102725.20
2019-04-21T05:44:32.245Z,102724.35
2019-04-21T05:47:05.554Z,102724.09
2019-04-21T05:49:45.175Z,102722.98
2019-04-21T05:52:15.004Z,102720.39
2019-04-21T05:54:57.870Z,102724.84
2019-04-21T05:57:14.775Z,102715.55
2019-04-21T06:00:08.746Z,102714.68
2019-04-21T06:02:35.189Z,102716.05
2019-04-21T06:07:28.506Z,102709.25
2019-04-21T06:09:59.974Z,102716.61
2019-04-21T06:12:29.805Z,102710.25
2019-04-21T06:15:02.635Z,102717.95
2019-04-21T06:17:40.911Z,102717.38
2019-04-21T06:20:02.921Z,102708.16
2019-04-21T06:22:30.157Z,102711.22
2019-04-21T06:25:44.666Z,102710.67
2019-04-21T06:27:51.201Z,102704.98
2019-04-21T06:30:06.881Z,102702.08
2019-04-21T06:32:47.172Z,102698.06
2019-04-21T06:37:56.748Z,102687.17
2019-04-21T06:43:14.167Z,102677.55
2019-04-21T06:45:34.970Z,102681.65
2019-04-21T06:48:06.304Z,102682.01
2019-04-21T06:50:42.904Z,102683.15
2019-04-21T06:53:07.117Z,102675.29
2019-04-21T06:55:32.101Z,102679.12
2019-04-21T06:58:06.122Z,102681.59
2019-04-21T07:00:39.058Z,102681.46
2019-04-21T07:03:17.218Z,102675.14
2019-04-21T07:05:41.332Z,102675.84
2019-04-21T07:10:38.533Z,102671.15
2019-04-21T07:13:11.874Z,102671.22
2019-04-21T07:15:43.426Z,102676.27
2019-04-21T07:18:10.980Z,102668.09
2019-04-21T07:20:49.167Z,102671.94
2019-04-21T07:23:16.348Z,102669.34
2019-04-21T07:25:51.961Z,102670.22
2019-04-21T07:28:17.536Z,102665.50
2019-04-21T07:30:56.361Z,102669.36
2019-04-21T07:33:43.214Z,102665.28
2019-04-21T07:35:53.960Z,102657.50
2019-04-21T07:38:23.892Z,102656.59
2019-04-21T07:40:48.452Z,102657.97
2019-04-21T07:43:22.183Z,102650.34
2019-04-21T07:45:51.592Z,102655.05
2019-04-21T07:48:35.739Z,102647.12
2019-04-21T07:51:11.278Z,102644.59
2019-04-21T07:53:59.648Z,102641.21
2019-04-21T07:56:07.267Z,102638.64
2019-04-21T07:58:58.287Z,102622.55
2019-04-21T08:01:28.867Z,102615.80
2019-04-21T08:03:57.007Z,102619.19
2019-04-21T08:06:28.347Z,102609.81
2019-04-21T08:08:55.986Z,102606.80
2019-04-21T08:11:28.348Z,102603.61
2019-04-21T08:13:57.890Z,102602.65
2019-04-21T08:16:35.033Z,102596.28
2019-04-21T08:18:59.829Z,102594.41
2019-04-21T08:21:33.877Z,102601.90
2019-04-21T08:23:59.664Z,102593.60
2019-04-21T08:26:36.908Z,102583.42
2019-04-21T08:29:13.122Z,102590.38
2019-04-21T08:31:50.012Z,102589.63
2019-04-21T08:36:33.933Z,102574.98
2019-04-21T08:39:07.341Z,102569.79
2019-04-21T08:41:40.855Z,102571.91
2019-04-21T08:44:10.684Z,102566.59
2019-04-21T08:46:49.147Z,102569.84
2019-04-21T08:49:15.529Z,102565.34
2019-04-21T08:51:52.246Z,102560.75
2019-04-21T08:54:23.587Z,102554.63
2019-04-21T08:57:33.712Z,102552.91
2019-04-21T09:00:12.481Z,102546.62
2019-04-21T09:03:00.304Z,102543.45
2019-04-21T09:05:23.376Z,102540.00
2019-04-21T09:07:57.200Z,102539.17
2019-04-21T09:10:31.074Z,102535.48
2019-04-21T09:12:58.888Z,102533.05
2019-04-21T09:15:30.970Z,102524.79
2019-04-21T09:17:53.382Z,102518.81
2019-04-21T09:20:38.797Z,102518.32
2019-04-21T09:23:11.409Z,102523.12
2019-04-21T09:25:42.935Z,102523.78
2019-04-21T09:28:04.062Z,102512.44
2019-04-21T09:30:21.912Z,102512.20
2019-04-21T09:32:53.459Z,102515.20
2019-04-21T09:35:23.988Z,102509.97
2019-04-21T09:38:02.084Z,102510.00
2019-04-21T09:40:30.131Z,102507.00
2019-04-21T09:43:01.079Z,102497.30
2019-04-21T09:45:26.598Z,102490.98
2019-04-21T09:48:02.767Z,102484.22
2019-04-21T09:50:27.039Z,102476.78
2019-04-21T09:53:03.967Z,102481.30
2019-04-21T09:55:36.500Z,102477.55
2019-04-21T09:58:09.946Z,102476.02
2019-04-21T10:00:36.320Z,102470.37
2019-04-21T10:03:06.731Z,102473.33
2019-04-21T10:05:32.058Z,102472.88
2019-04-21T10:08:01.464Z,102462.94
2019-04-21T10:10:31.845Z,102459.55
2019-04-21T10:13:02.761Z,102461.34
2019-04-21T10:15:33.220Z,102455.38
2019-04-21T10:18:06.414Z,102455.06
2019-04-21T10:20:36.355Z,102444.81
2019-04-21T10:23:07.071Z,102448.94
2019-04-21T10:25:36.868Z,102436.89
2019-04-21T10:28:07.361Z,102442.20
2019-04-21T10:30:36.725Z,102434.02
2019-04-21T10:33:06.229Z,102435.64
2019-04-21T10:35:35.505Z,102430.66
2019-04-21T10:38:17.022Z,102424.61
2019-04-21T10:40:37.295Z,102420.97
2019-04-21T10:43:10.102Z,102423.58
2019-04-21T10:45:39.026Z,102418.52
2019-04-21T10:48:08.560Z,102416.11
2019-04-21T10:50:38.916Z,102412.55
2019-04-21T10:53:20.900Z,102413.25
2019-04-21T10:56:03.144Z,102418.53
2019-04-21T10:58:24.714Z,102409.95
2019-04-21T11:01:00.078Z,102404.19
2019-04-21T11:03:35.252Z,102397.55
2019-04-21T11:06:06.443Z,102392.06
2019-04-21T11:08:41.560Z,102397.66
2019-04-21T11:11:08.041Z,102393.20
2019-04-21T11:13:38.719Z,102397.03
2019-04-21T11:16:08.857Z,102398.55
2019-04-21T11:18:38.389Z,102391.57
2019-04-21T11:21:09.072Z,102388.67
2019-04-21T11:23:38.451Z,102389.83
2019-04-21T11:26:07.998Z,102382.58
2019-04-21T11:28:38.740Z,102379.62
2019-04-21T11:31:09.044Z,102385.85
2019-04-21T11:33:39.548Z,102384.77
2019-04-21T11:36:09.204Z,102376.84
2019-04-21T11:39:12.405Z,102381.64
2019-04-21T11:41:33.911Z,102382.05
2019-04-21T11:44:05.018Z,102383.56
2019-04-21T11:46:34.457Z,102374.02
2019-04-21T11:49:04.136Z,102374.16
2019-04-21T11:51:33.573Z,102370.30
2019-04-21T11:54:02.978Z,102362.43
2019-04-21T11:56:32.754Z,102365.58
2019-04-21T11:59:03.752Z,102364.48
2019-04-21T12:01:33.810Z,102361.61
2019-04-21T12:04:03.469Z,102355.58
2019-04-21T12:06:40.929Z,102353.94
2019-04-21T12:09:06.954Z,102354.16
2019-04-21T12:14:05.915Z,102345.23
2019-04-21T12:16:35.301Z,102342.36
2019-04-21T12:19:05.136Z,102336.05
2019-04-21T12:21:48.228Z,102333.62
2019-04-21T12:24:07.027Z,102325.92
2019-04-21T12:26:36.369Z,102333.45
2019-04-21T12:29:06.024Z,102324.31
2019-04-21T12:32:03.838Z,102316.17
2019-04-21T12:34:34.295Z,102320.11
2019-04-21T12:37:04.620Z,102310.59
2019-04-21T12:39:34.764Z,102308.88
2019-04-21T12:42:04.751Z,102301.58
2019-04-21T12:44:34.242Z,102294.33
2019-04-21T12:47:03.759Z,102293.75
2019-04-21T12:49:33.851Z,102283.86
2019-04-21T12:52:03.803Z,102287.49
2019-04-21T12:54:33.450Z,102286.91
2019-04-21T12:57:03.453Z,102275.45
2019-04-21T12:59:34.538Z,102277.26
2019-04-21T13:02:04.152Z,102270.25
2019-04-21T13:04:33.642Z,102264.64
2019-04-21T13:07:03.667Z,102266.52
2019-04-21T13:09:34.290Z,102258.16
2019-04-21T13:12:04.887Z,102257.86
2019-04-21T13:14:35.758Z,102255.95
2019-04-21T13:17:05.668Z,102258.42
2019-04-21T13:19:35.705Z,102250.66
2019-04-21T13:22:05.910Z,102246.84
2019-04-21T13:24:35.928Z,102245.55
2019-04-21T13:27:07.006Z,102244.98
2019-04-21T13:29:36.593Z,102241.34
2019-04-21T13:32:07.482Z,102232.89
2019-04-21T13:34:37.930Z,102233.30
2019-04-21T13:37:07.832Z,102235.12
2019-04-21T13:40:34.503Z,102228.47
2019-04-21T13:42:51.689Z,102227.54
2019-04-21T13:45:18.334Z,102231.33
2019-04-21T13:47:48.515Z,102223.86
2019-04-21T13:50:19.353Z,102227.73
2019-04-21T13:52:48.974Z,102221.48
2019-04-21T13:55:19.388Z,102222.77
2019-04-21T13:57:50.396Z,102218.88
2019-04-21T14:00:21.630Z,102216.10
2019-04-21T14:02:52.512Z,102220.58
2019-04-21T14:05:22.434Z,102221.31
2019-04-21T14:07:52.323Z,102207.33
2019-04-21T14:10:21.946Z,102214.03
2019-04-21T14:12:51.314Z,102207.97
2019-04-21T14:15:22.379Z,102214.22
2019-04-21T14:17:52.927Z,102211.19
2019-04-21T14:20:22.551Z,102209.42
2019-04-21T14:22:52.028Z,102203.53
2019-04-21T14:25:21.688Z,102201.08
2019-04-21T14:27:52.527Z,102204.27
2019-04-21T14:30:22.823Z,102201.37
2019-04-21T14:32:52.188Z,102197.60
2019-04-21T14:35:22.797Z,102196.63
2019-04-21T14:37:52.906Z,102198.36
2019-04-21T14:40:27.289Z,102194.22
2019-04-21T14:42:54.091Z,102195.58
2019-04-21T14:45:41.117Z,102196.45
2019-04-21T14:48:29.458Z,102193.36
2019-04-21T14:51:16.854Z,102203.30
2019-04-21T14:53:59.756Z,102202.59
2019-04-21T14:56:29.281Z,102194.19
2019-04-21T14:58:59.501Z,102199.48
2019-04-21T15:01:29.578Z,102194.52
2019-04-21T15:03:59.814Z,102191.88
2019-04-21T15:06:29.582Z,102196.02
2019-04-21T15:08:58.905Z,102193.73
2019-04-21T15:11:29.759Z,102191.05
2019-04-21T15:13:59.780Z,102188.06
2019-04-21T15:16:29.158Z,102183.63
2019-04-21T15:18:59.034Z,102187.88
2019-04-21T15:21:29.124Z,102192.76
2019-04-21T15:23:58.571Z,102185.60
2019-04-21T15:26:28.460Z,102185.02
2019-04-21T15:28:59.165Z,102185.65
2019-04-21T15:31:33.968Z,102183.50
2019-04-21T15:33:59.598Z,102185.70
2019-04-21T15:36:31.823Z,102181.83
2019-04-21T15:39:01.448Z,102183.27
2019-04-21T15:41:32.279Z,102179.66
2019-04-21T15:44:04.044Z,102172.72
2019-04-21T15:46:35.141Z,102174.06
2019-04-21T15:49:05.019Z,102169.72
2019-04-21T15:51:35.774Z,102175.11
2019-04-21T15:54:06.826Z,102167.42
2019-04-21T15:56:40.772Z,102166.63
2019-04-21T15:59:35.222Z,102163.70
2019-04-21T16:02:22.722Z,102160.20
2019-04-21T16:04:52.721Z,102170.81
2019-04-21T16:07:22.361Z,102160.58
2019-04-21T16:09:52.367Z,102164.63
2019-04-21T16:12:22.097Z,102160.73
2019-04-21T16:14:52.517Z,102161.56
2019-04-21T16:17:23.437Z,102159.76
2019-04-21T16:19:54.261Z,102156.39
2019-04-21T16:22:24.462Z,102151.67
2019-04-21T16:24:54.694Z,102147.51
2019-04-21T16:27:25.576Z,102148.70
2019-04-21T16:29:55.062Z,102147.09
2019-04-21T16:32:24.440Z,102141.87
2019-04-21T16:34:59.825Z,102144.55
2019-04-21T16:37:25.707Z,102142.66
2019-04-21T16:39:55.714Z,102137.94
2019-04-21T16:42:24.964Z,102132.17
2019-04-21T16:44:54.780Z,102135.41
2019-04-21T16:47:24.259Z,102136.67
2019-04-21T16:49:53.977Z,102140.33
2019-04-21T16:52:28.102Z,102141.58
2019-04-21T16:55:05.083Z,102141.19
2019-04-21T16:57:39.950Z,102135.93
2019-04-21T17:00:26.387Z,102134.32
2019-04-21T17:02:44.188Z,102131.23
2019-04-21T17:05:14.375Z,102135.70
2019-04-21T17:07:44.981Z,102134.45
2019-04-21T17:10:14.822Z,102132.59
2019-04-21T17:12:45.502Z,102130.19
2019-04-21T17:15:32.402Z,102130.19
2019-04-21T17:18:04.158Z,102128.70
2019-04-21T17:20:32.305Z,102128.70
2019-04-21T17:22:49.503Z,102133.91
2019-04-21T17:25:21.508Z,102135.25
2019-04-21T17:27:51.371Z,102137.88
2019-04-21T17:30:22.293Z,102133.98
2019-04-21T17:32:53.313Z,102136.09
2019-04-21T17:35:22.938Z,102129.55
2019-04-21T17:37:52.363Z,102140.27
2019-04-21T17:40:26.339Z,102141.12
2019-04-21T17:43:01.966Z,102137.45
2019-04-21T17:45:27.253Z,102134.45
2019-04-21T17:48:02.927Z,102134.45
2019-04-21T17:50:57.427Z,102137.10
2019-04-21T17:53:43.814Z,102146.38
2019-04-21T17:56:31.540Z,102141.84
2019-04-21T17:58:58.465Z,102142.40
2019-04-21T18:01:35.596Z,102147.77
2019-04-21T18:04:05.248Z,102150.85
2019-04-21T18:06:45.158Z,102148.76
2019-04-21T18:09:21.702Z,102148.56
2019-04-21T18:11:52.670Z,102150.64
2019-04-21T18:14:01.719Z,102151.30
2019-04-21T18:16:38.117Z,102153.36
2019-04-21T18:19:02.604Z,102158.20
2019-04-21T18:21:46.931Z,102161.61
2019-04-21T18:24:17.683Z,102169.48
2019-04-21T18:26:50.661Z,102170.09
2019-04-21T18:29:13.670Z,102173.44
2019-04-21T18:31:48.685Z,102173.48
2019-04-21T18:34:33.868Z,102180.39
2019-04-21T18:37:14.805Z,102173.14
2019-04-21T18:39:55.849Z,102191.11
2019-04-21T18:43:05.607Z,102187.47
2019-04-21T18:45:56.841Z,102198.45
2019-04-21T18:48:36.438Z,102201.22
2019-04-21T18:51:11.925Z,102200.95
2019-04-21T18:54:02.221Z,102207.62
2019-04-21T18:56:20.617Z,102210.67
2019-04-21T18:58:50.975Z,102212.85
2019-04-21T19:01:26.284Z,102213.95
2019-04-21T19:03:54.578Z,102209.98
2019-04-21T19:06:42.420Z,102217.10
2019-04-21T19:09:12.002Z,102215.17
2019-04-21T19:11:42.202Z,102221.73
2019-04-21T19:16:59.056Z,102223.56
2019-04-21T19:19:41.375Z,102233.05
2019-04-21T19:21:55.426Z,102229.63
2019-04-21T19:24:29.497Z,102238.12
2019-04-21T19:27:01.675Z,102252.22
2019-04-21T19:29:35.931Z,102249.70
2019-04-21T19:32:14.864Z,102258.26
2019-04-21T19:34:18.813Z,102257.16
2019-04-21T19:36:51.202Z,102262.20
2019-04-21T19:39:23.302Z,102268.52
2019-04-21T19:41:59.225Z,102274.20
2019-04-21T19:44:36.596Z,102272.70
2019-04-21T19:47:04.142Z,102271.05
2019-04-21T19:49:43.796Z,102283.39
2019-04-21T19:51:56.522Z,102285.39
2019-04-21T19:54:29.413Z,102283.78
2019-04-21T19:56:51.466Z,102289.24
2019-04-21T19:59:31.833Z,102293.59
2019-04-21T20:01:52.044Z,102292.70
2019-04-21T20:04:31.520Z,102288.27
2019-04-21T20:07:02.931Z,102293.86
2019-04-21T20:09:43.289Z,102290.39
2019-04-21T20:12:09.514Z,102302.63
2019-04-21T20:14:52.192Z,102293.73
2019-04-21T20:17:09.980Z,102294.53
2019-04-21T20:19:28.040Z,102297.92
2019-04-21T20:21:58.874Z,102291.94
2019-04-21T20:24:32.046Z,102305.48
2019-04-21T20:27:07.520Z,102308.34
2019-04-21T20:29:53.843Z,102314.37
2019-04-21T20:32:28.013Z,102312.55
2019-04-21T20:34:59.152Z,102311.59
2019-04-21T20:37:21.127Z,102319.71
2019-04-21T20:39:46.121Z,102318.72
2019-04-21T20:42:21.157Z,102321.80
2019-04-21T20:45:13.077Z,102317.76
2019-04-21T20:47:19.837Z,102319.05
2019-04-21T20:49:50.496Z,102314.34
2019-04-21T20:52:29.376Z,102324.50
2019-04-21T20:54:55.908Z,102332.39
2019-04-21T20:57:30.020Z,102328.27
2019-04-21T21:00:03.189Z,102325.37
2019-04-21T21:02:38.351Z,102333.17
2019-04-21T21:04:56.425Z,102335.08
2019-04-21T21:10:08.663Z,102331.05
2019-04-21T21:12:44.496Z,102342.72
2019-04-21T21:15:02.559Z,102347.12
2019-04-21T21:17:45.462Z,102347.28
2019-04-21T21:20:14.521Z,102344.02
2019-04-21T21:22:41.285Z,102349.95
2019-04-21T21:25:18.781Z,102349.21
2019-04-21T21:27:42.163Z,102353.23
2019-04-21T21:30:14.583Z,102356.00
2019-04-21T21:32:44.889Z,102370.16
2019-04-21T21:35:13.158Z,102358.50
2019-04-21T21:37:49.284Z,102352.39
2019-04-21T21:40:21.842Z,102344.50
2019-04-21T21:42:37.610Z,102352.09
2019-04-21T21:45:12.645Z,102347.69
2019-04-21T21:47:53.630Z,102351.33
2019-04-21T21:50:17.160Z,102350.44
2019-04-21T21:52:47.920Z,102355.68
2019-04-21T21:55:09.862Z,102352.10
2019-04-21T21:57:47.573Z,102349.36
2019-04-21T22:00:15.572Z,102350.49
2019-04-21T22:02:50.825Z,102355.14
2019-04-21T22:05:25.384Z,102356.52
2019-04-21T22:07:52.183Z,102348.83
2019-04-21T22:10:23.104Z,102356.96
2019-04-21T22:12:59.791Z,102359.41
2019-04-21T22:15:29.510Z,102356.81
2019-04-21T22:18:14.700Z,102359.25
2019-04-21T22:20:43.231Z,102353.14
2019-04-21T22:23:05.025Z,102346.62
2019-04-21T22:25:34.007Z,102348.83
2019-04-21T22:28:02.058Z,102341.34
2019-04-21T22:30:37.060Z,102350.64
2019-04-21T22:33:08.305Z,102356.72
2019-04-21T22:35:42.215Z,102356.13
2019-04-21T22:38:19.798Z,102352.99
2019-04-21T22:40:50.670Z,102352.31
2019-04-21T22:43:19.669Z,102348.05
2019-04-21T22:45:38.286Z,102350.16
2019-04-21T22:48:14.298Z,102355.05
2019-04-21T22:50:40.563Z,102356.42
2019-04-21T22:53:11.717Z,102346.59
2019-04-21T22:55:42.964Z,102352.31
2019-04-21T22:58:15.908Z,102354.95
2019-04-21T23:00:51.431Z,102355.73
2019-04-21T23:03:19.510Z,102359.36
2019-04-21T23:05:46.979Z,102360.28
2019-04-21T23:08:17.249Z,102356.91
2019-04-21T23:10:49.639Z,102355.78
2019-04-21T23:13:21.906Z,102353.34
2019-04-21T23:15:53.659Z,102356.17
2019-04-21T23:18:36.251Z,102361.03
2019-04-21T23:21:09.394Z,102364.54
2019-04-21T23:23:44.153Z,102366.05
2019-04-21T23:26:14.403Z,102362.88
2019-04-21T23:28:49.145Z,102364.39
2019-04-21T23:31:21.466Z,102360.03
2019-04-21T23:33:27.528Z,102364.39
2019-04-21T23:36:03.665Z,102372.28
2019-04-21T23:38:36.538Z,102377.90
2019-04-21T23:41:03.480Z,102379.34
2019-04-21T23:43:33.027Z,102385.50
2019-04-21T23:46:15.908Z,102389.81
2019-04-21T23:48:49.595Z,102391.42
2019-04-21T23:51:15.969Z,102389.11
2019-04-21T23:53:35.444Z,102387.58
2019-04-21T23:56:05.437Z,102390.86
2019-04-21T23:58:36.732Z,102390.92
